createdAt,value
2018-08-20T00:00:36.827Z,96.37
2018-08-20T00:01:36.825Z,96.46
2018-08-20T00:02:36.828Z,97.14
2018-08-20T00:03:36.830Z,96.17
2018-08-20T00:04:36.833Z,96.37
2018-08-20T00:05:36.835Z,96.17
2018-08-20T00:06:36.837Z,96.75
2018-08-20T00:07:36.840Z,96.85
2018-08-20T00:08:36.842Z,96.85
2018-08-20T00:09:36.843Z,97.04
2018-08-20T00:10:36.845Z,97.14
2018-08-20T00:11:36.848Z,96.94
2018-08-20T00:12:36.853Z,96.42
2018-08-20T00:13:36.852Z,96.46
2018-08-20T00:14:36.854Z,95.31
2018-08-20T00:15:36.857Z,95.69
2018-08-20T00:16:36.859Z,96.37
2018-08-20T00:17:36.861Z,95.89
2018-08-20T00:18:36.863Z,95.60
2018-08-20T00:19:36.865Z,96.08
2018-08-20T00:20:36.868Z,95.50
2018-08-20T00:21:36.871Z,95.69
2018-08-20T00:22:36.872Z,95.89
2018-08-20T00:23:36.873Z,96.37
2018-08-20T00:24:36.877Z,96.37
2018-08-20T00:25:36.879Z,96.42
2018-08-20T00:26:36.880Z,96.37
2018-08-20T00:27:36.882Z,95.98
2018-08-20T00:28:36.884Z,95.84
2018-08-20T00:29:36.886Z,96.22
2018-08-20T00:30:36.888Z,96.12
2018-08-20T00:31:36.891Z,96.80
2018-08-20T00:32:36.892Z,97.14
2018-08-20T00:33:36.895Z,97.19
2018-08-20T00:34:36.897Z,96.80
2018-08-20T00:35:36.899Z,97.38
2018-08-20T00:36:36.901Z,96.70
2018-08-20T00:37:36.904Z,97.09
2018-08-20T00:38:36.905Z,96.80
2018-08-20T00:39:36.908Z,97.09
2018-08-20T00:40:36.910Z,96.89
2018-08-20T00:41:36.911Z,96.99
2018-08-20T00:42:36.914Z,96.99
2018-08-20T00:43:36.915Z,97.47
2018-08-20T00:44:36.918Z,97.47
2018-08-20T00:45:36.918Z,96.89
2018-08-20T00:46:36.922Z,96.22
2018-08-20T00:47:36.924Z,96.70
2018-08-20T00:48:36.926Z,96.89
2018-08-20T00:49:36.927Z,96.61
2018-08-20T00:50:36.930Z,96.22
2018-08-20T00:51:36.932Z,96.03
2018-08-20T00:52:36.934Z,96.61
2018-08-20T00:53:36.936Z,96.12
2018-08-20T00:54:36.937Z,95.65
2018-08-20T00:55:36.939Z,95.45
2018-08-20T00:56:36.942Z,95.45
2018-08-20T00:57:36.943Z,96.32
2018-08-20T00:58:36.947Z,96.03
2018-08-20T00:59:36.948Z,96.99
2018-08-20T01:00:36.950Z,96.03
2018-08-20T01:01:36.952Z,95.84
2018-08-20T01:02:36.955Z,95.45
2018-08-20T01:03:36.956Z,95.94
2018-08-20T01:04:36.959Z,96.61
2018-08-20T01:05:36.959Z,96.99
2018-08-20T01:06:36.960Z,97.28
2018-08-20T01:07:36.963Z,98.05
2018-08-20T01:08:36.967Z,97.38
2018-08-20T01:09:36.969Z,98.05
2018-08-20T01:10:36.969Z,97.42
2018-08-20T01:11:36.971Z,97.96
2018-08-20T01:12:36.975Z,97.96
2018-08-20T01:13:36.979Z,97.76
2018-08-20T01:14:36.977Z,97.96
2018-08-20T01:15:36.979Z,97.76
2018-08-20T01:16:36.982Z,98.05
2018-08-20T01:17:36.983Z,98.14
2018-08-20T01:18:36.985Z,97.86
2018-08-20T01:19:36.986Z,97.76
2018-08-20T01:20:36.988Z,98.05
2018-08-20T01:21:36.989Z,97.76
2018-08-20T01:22:36.992Z,97.47
2018-08-20T01:23:36.994Z,97.47
2018-08-20T01:24:36.997Z,97.86
2018-08-20T01:25:36.997Z,97.38
2018-08-20T01:26:36.999Z,97.57
2018-08-20T01:27:37.002Z,97.57
2018-08-20T01:28:37.003Z,97.96
2018-08-20T01:29:37.013Z,97.76
2018-08-20T01:30:37.010Z,97.38
2018-08-20T01:31:37.010Z,97.96
2018-08-20T01:32:37.011Z,97.47
2018-08-20T01:33:37.012Z,97.96
2018-08-20T01:34:37.014Z,98.10
2018-08-20T01:35:37.016Z,98.39
2018-08-20T01:36:37.020Z,98.39
2018-08-20T01:37:37.019Z,98.10
2018-08-20T01:38:37.021Z,98.58
2018-08-20T01:39:37.024Z,98.96
2018-08-20T01:40:37.025Z,99.06
2018-08-20T01:41:37.027Z,99.06
2018-08-20T01:42:37.028Z,99.06
2018-08-20T01:43:37.029Z,98.87
2018-08-20T01:44:37.032Z,99.16
2018-08-20T01:45:37.033Z,99.64
2018-08-20T01:46:37.035Z,99.35
2018-08-20T01:47:37.039Z,99.54
2018-08-20T01:48:37.041Z,98.29
2018-08-20T01:49:37.040Z,98.49
2018-08-20T01:50:37.042Z,98.39
2018-08-20T01:51:37.044Z,98.49
2018-08-20T01:52:37.049Z,97.91
2018-08-20T01:53:37.048Z,98.39
2018-08-20T01:54:37.049Z,98.39
2018-08-20T01:55:37.051Z,98.00
2018-08-20T01:56:37.053Z,98.19
2018-08-20T01:57:37.054Z,98.29
2018-08-20T01:58:37.055Z,98.10
2018-08-20T01:59:37.057Z,98.19
2018-08-20T02:00:37.059Z,98.19
2018-08-20T02:01:37.061Z,98.00
2018-08-20T02:02:37.062Z,97.81
2018-08-20T02:03:37.065Z,97.81
2018-08-20T02:04:37.066Z,97.62
2018-08-20T02:05:37.068Z,97.91
2018-08-20T02:06:37.070Z,97.91
2018-08-20T02:07:37.072Z,97.81
2018-08-20T02:08:37.074Z,98.19
2018-08-20T02:09:37.075Z,98.10
2018-08-20T02:10:37.078Z,97.91
2018-08-20T02:11:37.078Z,98.39
2018-08-20T02:12:37.081Z,98.68
2018-08-20T02:13:37.082Z,98.39
2018-08-20T02:14:37.084Z,98.39
2018-08-20T02:15:37.086Z,97.81
2018-08-20T02:16:37.089Z,97.62
2018-08-20T02:17:37.088Z,97.91
2018-08-20T02:18:37.091Z,97.81
2018-08-20T02:19:37.092Z,97.91
2018-08-20T02:20:37.094Z,97.71
2018-08-20T02:21:37.095Z,97.62
2018-08-20T02:22:37.100Z,98.10
2018-08-20T02:23:37.099Z,97.71
2018-08-20T02:24:37.101Z,98.19
2018-08-20T02:25:37.101Z,98.49
2018-08-20T02:26:37.104Z,98.29
2018-08-20T02:27:37.105Z,98.63
2018-08-20T02:28:37.108Z,98.49
2018-08-20T02:29:37.110Z,98.87
2018-08-20T02:30:37.111Z,98.34
2018-08-20T02:31:37.112Z,98.24
2018-08-20T02:32:37.114Z,98.96
2018-08-20T02:33:37.115Z,99.54
2018-08-20T02:34:37.117Z,99.73
2018-08-20T02:35:37.118Z,99.30
2018-08-20T02:36:37.120Z,99.30
2018-08-20T02:37:37.124Z,99.30
2018-08-20T02:38:37.123Z,99.30
2018-08-20T02:39:37.126Z,99.88
2018-08-20T02:40:37.128Z,99.78
2018-08-20T02:41:37.128Z,99.49
2018-08-20T02:42:37.130Z,99.30
2018-08-20T02:43:37.131Z,99.59
2018-08-20T02:44:37.134Z,99.99
2018-08-20T02:45:37.134Z,99.99
2018-08-20T02:46:37.135Z,99.98
2018-08-20T02:47:37.137Z,99.98
2018-08-20T02:48:37.138Z,99.99
2018-08-20T02:49:37.139Z,99.68
2018-08-20T02:50:37.148Z,99.88
2018-08-20T02:51:37.143Z,99.78
2018-08-20T02:52:37.144Z,99.99
2018-08-20T02:53:37.146Z,99.99
2018-08-20T02:54:37.148Z,99.99
2018-08-20T02:55:37.155Z,99.99
2018-08-20T02:56:37.151Z,99.99
2018-08-20T02:57:37.152Z,99.99
2018-08-20T02:58:37.153Z,99.99
2018-08-20T02:59:37.155Z,99.99
2018-08-20T03:00:37.158Z,99.99
2018-08-20T03:01:37.159Z,99.99
2018-08-20T03:02:37.160Z,99.99
2018-08-20T03:03:37.165Z,99.99
2018-08-20T03:04:37.166Z,99.99
2018-08-20T03:05:37.164Z,99.99
2018-08-20T03:06:37.165Z,99.99
2018-08-20T03:07:37.166Z,99.99
2018-08-20T03:08:37.169Z,99.99
2018-08-20T03:09:37.169Z,99.99
2018-08-20T03:10:37.171Z,99.78
2018-08-20T03:11:37.172Z,99.99
2018-08-20T03:12:37.174Z,99.99
2018-08-20T03:13:37.177Z,99.78
2018-08-20T03:14:37.178Z,99.99
2018-08-20T03:15:37.177Z,99.78
2018-08-20T03:16:37.180Z,99.98
2018-08-20T03:17:37.181Z,99.99
2018-08-20T03:18:37.182Z,99.99
2018-08-20T03:19:37.184Z,99.99
2018-08-20T03:20:37.186Z,99.68
2018-08-20T03:21:37.186Z,99.88
2018-08-20T03:22:37.190Z,99.68
2018-08-20T03:23:37.190Z,99.98
2018-08-20T03:24:37.191Z,99.68
2018-08-20T03:25:37.193Z,99.59
2018-08-20T03:26:37.194Z,99.98
2018-08-20T03:27:37.195Z,99.99
2018-08-20T03:28:37.248Z,99.99
2018-08-20T03:29:37.198Z,99.98
2018-08-20T03:30:37.198Z,99.99
2018-08-20T03:31:37.201Z,99.59
2018-08-20T03:32:37.202Z,99.78
2018-08-20T03:33:37.204Z,99.59
2018-08-20T03:34:37.212Z,99.99
2018-08-20T03:35:37.212Z,99.99
2018-08-20T03:36:37.207Z,99.99
2018-08-20T03:37:37.209Z,99.99
2018-08-20T03:38:37.210Z,99.99
2018-08-20T03:39:37.227Z,99.99
2018-08-20T03:40:37.213Z,99.99
2018-08-20T03:41:37.214Z,99.99
2018-08-20T03:42:37.215Z,99.99
2018-08-20T03:43:37.217Z,99.99
2018-08-20T03:44:37.218Z,99.99
2018-08-20T03:45:37.218Z,99.99
2018-08-20T03:46:37.219Z,99.99
2018-08-20T03:47:37.221Z,99.99
2018-08-20T03:48:37.222Z,99.99
2018-08-20T03:49:37.224Z,99.99
2018-08-20T03:50:37.231Z,99.99
2018-08-20T03:51:37.226Z,99.99
2018-08-20T03:52:37.228Z,99.99
2018-08-20T03:53:37.228Z,99.99
2018-08-20T03:54:37.230Z,99.99
2018-08-20T03:55:37.231Z,99.99
2018-08-20T03:56:37.233Z,99.99
2018-08-20T03:57:37.233Z,99.99
2018-08-20T03:58:37.236Z,99.99
2018-08-20T03:59:37.236Z,99.99
2018-08-20T04:00:37.235Z,99.99
2018-08-20T04:01:37.239Z,99.99
2018-08-20T04:02:37.238Z,99.99
2018-08-20T04:03:37.244Z,99.99
2018-08-20T04:04:37.243Z,99.99
2018-08-20T04:05:37.246Z,99.99
2018-08-20T04:06:37.243Z,99.99
2018-08-20T04:07:37.246Z,99.99
2018-08-20T04:08:37.247Z,99.99
2018-08-20T04:09:37.249Z,99.99
2018-08-20T04:10:37.251Z,99.99
2018-08-20T04:11:37.253Z,99.99
2018-08-20T04:12:37.252Z,99.99
2018-08-20T04:13:37.251Z,99.99
2018-08-20T04:14:37.253Z,99.99
2018-08-20T04:15:37.254Z,99.99
2018-08-20T04:16:37.256Z,99.99
2018-08-20T04:17:37.256Z,99.99
2018-08-20T04:18:37.261Z,99.99
2018-08-20T04:19:37.259Z,99.99
2018-08-20T04:20:37.260Z,99.99
2018-08-20T04:21:37.260Z,99.99
2018-08-20T04:22:37.265Z,99.99
2018-08-20T04:23:37.263Z,99.99
2018-08-20T04:24:37.265Z,99.99
2018-08-20T04:25:37.265Z,99.99
2018-08-20T04:26:37.266Z,99.99
2018-08-20T04:27:37.269Z,99.99
2018-08-20T04:28:37.271Z,99.99
2018-08-20T04:29:37.270Z,99.99
2018-08-20T04:30:37.286Z,99.99
2018-08-20T04:31:37.274Z,99.99
2018-08-20T04:32:37.275Z,99.99
2018-08-20T04:33:37.274Z,99.99
2018-08-20T04:34:37.276Z,99.99
2018-08-20T04:35:37.276Z,99.99
2018-08-20T04:36:37.280Z,99.99
2018-08-20T04:37:37.279Z,99.99
2018-08-20T04:38:37.281Z,99.99
2018-08-20T04:39:37.284Z,99.99
2018-08-20T04:40:37.283Z,99.99
2018-08-20T04:41:37.283Z,99.99
2018-08-20T04:42:37.284Z,99.99
2018-08-20T04:43:37.286Z,99.99
2018-08-20T04:44:37.287Z,99.99
2018-08-20T04:45:37.288Z,99.99
2018-08-20T04:46:37.288Z,99.99
2018-08-20T04:47:37.293Z,99.99
2018-08-20T04:48:37.294Z,99.99
2018-08-20T04:49:37.293Z,99.99
2018-08-20T04:50:37.319Z,99.99
2018-08-20T04:51:37.305Z,99.99
2018-08-20T04:52:37.298Z,99.99
2018-08-20T04:53:37.297Z,99.99
2018-08-20T04:54:37.297Z,99.99
2018-08-20T04:55:37.300Z,99.99
2018-08-20T04:56:37.300Z,99.99
2018-08-20T04:57:37.302Z,99.99
2018-08-20T04:58:37.303Z,99.99
2018-08-20T04:59:37.304Z,99.99
2018-08-20T05:00:37.306Z,99.99
2018-08-20T05:01:37.305Z,99.99
2018-08-20T05:02:37.307Z,99.99
2018-08-20T05:03:37.312Z,99.99
2018-08-20T05:04:37.310Z,99.99
2018-08-20T05:05:37.313Z,99.99
2018-08-20T05:06:37.311Z,99.99
2018-08-20T05:07:37.313Z,99.99
2018-08-20T05:08:37.315Z,99.99
2018-08-20T05:09:37.318Z,99.99
2018-08-20T05:10:37.316Z,99.99
2018-08-20T05:11:37.318Z,99.99
2018-08-20T05:12:37.319Z,99.99
2018-08-20T05:13:37.321Z,99.99
2018-08-20T05:14:37.320Z,99.99
2018-08-20T05:15:37.326Z,99.99
2018-08-20T05:16:37.325Z,99.99
2018-08-20T05:17:37.324Z,99.99
2018-08-20T05:18:37.325Z,99.99
2018-08-20T05:19:37.327Z,99.99
2018-08-20T05:20:37.328Z,99.99
2018-08-20T05:21:37.328Z,99.99
2018-08-20T05:22:37.330Z,99.99
2018-08-20T05:23:37.332Z,99.99
2018-08-20T05:24:37.334Z,99.99
2018-08-20T05:25:37.334Z,99.99
2018-08-20T05:26:37.335Z,99.99
2018-08-20T05:27:37.339Z,99.99
2018-08-20T05:28:37.338Z,99.99
2018-08-20T05:29:37.340Z,99.99
2018-08-20T05:30:37.340Z,99.99
2018-08-20T05:31:37.343Z,99.99
2018-08-20T05:32:37.344Z,99.99
2018-08-20T05:33:37.344Z,99.99
2018-08-20T05:34:37.344Z,99.99
2018-08-20T05:35:37.347Z,99.99
2018-08-20T05:36:37.348Z,99.99
2018-08-20T05:37:37.349Z,99.99
2018-08-20T05:38:37.351Z,99.99
2018-08-20T05:39:37.352Z,99.99
2018-08-20T05:40:37.354Z,99.99
2018-08-20T05:41:37.356Z,99.99
2018-08-20T05:42:37.356Z,99.99
2018-08-20T05:43:37.358Z,99.99
2018-08-20T05:44:37.364Z,99.99
2018-08-20T05:45:37.360Z,99.99
2018-08-20T05:46:37.362Z,99.99
2018-08-20T05:47:37.364Z,99.99
2018-08-20T05:48:37.366Z,99.99
2018-08-20T05:49:37.371Z,99.99
2018-08-20T05:50:37.369Z,99.99
2018-08-20T05:51:37.371Z,99.78
2018-08-20T05:52:37.459Z,99.64
2018-08-20T05:53:37.373Z,99.99
2018-08-20T05:54:37.375Z,99.44
2018-08-20T05:55:37.416Z,99.01
2018-08-20T05:56:37.427Z,98.68
2018-08-20T05:57:37.443Z,98.68
2018-08-20T05:58:38.506Z,99.44
2018-08-20T05:59:37.471Z,99.26
2018-08-20T06:00:37.450Z,98.87
2018-08-20T06:01:37.468Z,98.68
2018-08-20T06:02:37.477Z,98.29
2018-08-20T06:03:37.467Z,98.49
2018-08-20T06:04:37.425Z,99.06
2018-08-20T06:05:37.452Z,99.06
2018-08-20T06:06:37.439Z,99.16
2018-08-20T06:07:37.397Z,98.39
2018-08-20T06:08:37.400Z,98.39
2018-08-20T06:09:37.400Z,98.68
2018-08-20T06:10:37.404Z,98.24
2018-08-20T06:11:37.405Z,97.62
2018-08-20T06:12:37.465Z,97.47
2018-08-20T06:13:37.472Z,97.47
2018-08-20T06:14:37.453Z,97.71
2018-08-20T06:15:37.413Z,98.05
2018-08-20T06:16:37.414Z,97.47
2018-08-20T06:17:37.417Z,97.28
2018-08-20T06:18:37.672Z,96.80
2018-08-20T06:19:37.801Z,97.28
2018-08-20T06:20:37.423Z,97.19
2018-08-20T06:21:37.424Z,96.22
2018-08-20T06:22:37.672Z,95.84
2018-08-20T06:23:37.628Z,96.51
2018-08-20T06:24:37.431Z,96.08
2018-08-20T06:25:37.433Z,96.56
2018-08-20T06:26:37.435Z,96.32
2018-08-20T06:27:37.437Z,96.75
2018-08-20T06:28:37.458Z,97.14
2018-08-20T06:29:37.445Z,96.94
2018-08-20T06:30:37.446Z,96.56
2018-08-20T06:31:37.447Z,95.12
2018-08-20T06:32:37.548Z,94.44
2018-08-20T06:33:37.542Z,95.12
2018-08-20T06:34:37.453Z,95.60
2018-08-20T06:35:37.494Z,95.60
2018-08-20T06:36:37.519Z,96.70
2018-08-20T06:37:37.747Z,95.94
2018-08-20T06:38:37.837Z,95.45
2018-08-20T06:39:37.770Z,95.45
2018-08-20T06:40:37.755Z,95.07
2018-08-20T06:41:37.795Z,94.87
2018-08-20T06:42:37.473Z,95.64
2018-08-20T06:43:37.475Z,95.07
2018-08-20T06:44:37.478Z,95.07
2018-08-20T06:45:37.478Z,95.31
2018-08-20T06:46:37.482Z,93.86
2018-08-20T06:47:37.485Z,93.57
2018-08-20T06:48:37.525Z,92.90
2018-08-20T06:49:37.490Z,93.38
2018-08-20T06:50:37.493Z,92.61
2018-08-20T06:51:37.497Z,91.11
2018-08-20T06:52:37.505Z,88.98
2018-08-20T06:53:37.509Z,87.09
2018-08-20T06:54:37.518Z,85.21
2018-08-20T06:55:37.515Z,84.67
2018-08-20T06:56:37.522Z,83.16
2018-08-20T06:57:37.527Z,81.37
2018-08-20T06:58:37.534Z,79.08
2018-08-20T06:59:37.540Z,78.25
2018-08-20T07:00:37.744Z,75.67
2018-08-20T07:01:37.553Z,72.99
2018-08-20T07:02:37.596Z,71.44
2018-08-20T07:03:37.571Z,69.93
2018-08-20T07:04:37.682Z,69.18
2018-08-20T07:05:37.582Z,69.57
2018-08-20T07:06:37.690Z,69.09
2018-08-20T07:07:37.597Z,69.60
2018-08-20T07:08:37.605Z,68.51
2018-08-20T07:09:37.612Z,69.12
2018-08-20T07:10:37.621Z,69.22
2018-08-20T07:11:37.628Z,69.09
2018-08-20T07:12:37.639Z,68.44
2018-08-20T07:13:37.643Z,69.12
2018-08-20T07:14:37.755Z,67.44
2018-08-20T07:15:37.659Z,68.41
2018-08-20T07:16:37.828Z,68.41
2018-08-20T07:17:37.708Z,68.70
2018-08-20T07:18:37.683Z,69.34
2018-08-20T07:19:37.708Z,69.24
2018-08-20T07:20:37.691Z,69.06
2018-08-20T07:21:37.696Z,69.50
2018-08-20T07:22:37.707Z,69.60
2018-08-20T07:23:37.772Z,72.31
2018-08-20T07:24:37.716Z,74.60
2018-08-20T07:25:37.721Z,73.54
2018-08-20T07:26:37.728Z,75.19
2018-08-20T07:27:37.735Z,73.25
2018-08-20T07:28:37.739Z,72.73
2018-08-20T07:29:37.747Z,73.60
2018-08-20T07:30:37.750Z,75.54
2018-08-20T07:31:37.755Z,75.83
2018-08-20T07:32:38.198Z,74.86
2018-08-20T07:33:37.766Z,75.63
2018-08-20T07:34:38.016Z,76.79
2018-08-20T07:35:37.776Z,76.56
2018-08-20T07:36:37.814Z,76.66
2018-08-20T07:37:37.787Z,76.76
2018-08-20T07:38:37.793Z,77.53
2018-08-20T07:39:37.798Z,78.50
2018-08-20T07:40:37.803Z,77.05
2018-08-20T07:41:37.807Z,75.79
2018-08-20T07:42:37.815Z,76.56
2018-08-20T07:43:37.818Z,75.70
2018-08-20T07:44:37.824Z,75.50
2018-08-20T07:45:37.828Z,76.66
2018-08-20T07:46:37.837Z,75.15
2018-08-20T07:47:37.839Z,74.73
2018-08-20T07:48:37.846Z,74.18
2018-08-20T07:49:37.849Z,74.47
2018-08-20T07:50:38.018Z,74.57
2018-08-20T07:51:37.861Z,74.38
2018-08-20T07:52:37.866Z,75.73
2018-08-20T07:53:37.871Z,75.54
2018-08-20T07:54:37.875Z,73.89
2018-08-20T07:55:37.907Z,73.50
2018-08-20T07:56:37.886Z,75.44
2018-08-20T07:57:37.891Z,74.57
2018-08-20T07:58:37.896Z,75.24
2018-08-20T07:59:37.904Z,75.44
2018-08-20T08:00:37.907Z,73.79
2018-08-20T08:01:37.913Z,73.02
2018-08-20T08:02:37.916Z,71.95
2018-08-20T08:03:37.925Z,71.56
2018-08-20T08:04:37.928Z,71.66
2018-08-20T08:05:37.933Z,71.76
2018-08-20T08:06:37.946Z,71.80
2018-08-20T08:07:37.946Z,72.77
2018-08-20T08:08:37.992Z,71.76
2018-08-20T08:09:37.963Z,71.80
2018-08-20T08:10:37.964Z,71.31
2018-08-20T08:11:37.971Z,72.67
2018-08-20T08:12:37.975Z,72.83
2018-08-20T08:13:37.982Z,72.73
2018-08-20T08:14:37.987Z,73.89
2018-08-20T08:15:37.994Z,73.60
2018-08-20T08:16:38.000Z,73.11
2018-08-20T08:17:38.007Z,73.79
2018-08-20T08:18:38.012Z,73.02
2018-08-20T08:19:38.047Z,72.34
2018-08-20T08:20:38.025Z,73.44
2018-08-20T08:21:38.030Z,71.02
2018-08-20T08:22:38.038Z,71.89
2018-08-20T08:23:38.047Z,71.06
2018-08-20T08:24:38.109Z,66.11
2018-08-20T08:25:38.183Z,66.11
2018-08-20T08:26:38.427Z,64.65
2018-08-20T08:27:38.072Z,64.95
2018-08-20T08:28:38.079Z,64.56
2018-08-20T08:29:38.086Z,64.95
2018-08-20T08:30:38.093Z,65.14
2018-08-20T08:31:38.103Z,65.43
2018-08-20T08:32:38.132Z,65.14
2018-08-20T08:33:38.113Z,66.02
2018-08-20T08:34:38.121Z,64.65
2018-08-20T08:35:38.128Z,63.98
2018-08-20T08:36:38.136Z,64.65
2018-08-20T08:37:38.142Z,66.89
2018-08-20T08:38:38.151Z,67.37
2018-08-20T08:39:38.198Z,67.40
2018-08-20T08:40:38.162Z,63.88
2018-08-20T08:41:38.169Z,63.59
2018-08-20T08:42:38.177Z,64.56
2018-08-20T08:43:38.185Z,65.43
2018-08-20T08:44:38.191Z,65.85
2018-08-20T08:45:38.199Z,64.11
2018-08-20T08:46:38.206Z,63.62
2018-08-20T08:47:38.212Z,62.55
2018-08-20T08:48:38.220Z,62.95
2018-08-20T08:49:38.274Z,64.20
2018-08-20T08:50:38.235Z,62.85
2018-08-20T08:51:38.243Z,62.72
2018-08-20T08:52:38.251Z,63.46
2018-08-20T08:53:38.255Z,64.72
2018-08-20T08:54:38.262Z,65.30
2018-08-20T08:55:38.268Z,63.85
2018-08-20T08:56:38.276Z,63.65
2018-08-20T08:57:38.330Z,63.75
2018-08-20T08:58:38.288Z,63.75
2018-08-20T08:59:38.295Z,63.46
2018-08-20T09:00:38.358Z,62.33
2018-08-20T09:01:38.308Z,61.26
2018-08-20T09:02:38.315Z,59.16
2018-08-20T09:03:38.324Z,59.09
2018-08-20T09:04:38.331Z,59.77
2018-08-20T09:05:38.338Z,57.34
2018-08-20T09:06:38.347Z,55.99
2018-08-20T09:07:38.730Z,56.18
2018-08-20T09:08:38.640Z,56.89
2018-08-20T09:09:38.602Z,57.28
2018-08-20T09:10:38.543Z,55.43
2018-08-20T09:11:38.618Z,56.40
2018-08-20T09:12:38.676Z,56.92
2018-08-20T09:13:38.408Z,56.50
2018-08-20T09:14:38.416Z,55.85
2018-08-20T09:15:38.489Z,56.34
2018-08-20T09:16:38.430Z,56.14
2018-08-20T09:17:38.439Z,55.94
2018-08-20T09:18:38.449Z,55.49
2018-08-20T09:19:38.504Z,55.39
2018-08-20T09:20:38.560Z,53.69
2018-08-20T09:21:38.481Z,54.08
2018-08-20T09:22:38.488Z,52.94
2018-08-20T09:23:38.497Z,50.87
2018-08-20T09:24:38.509Z,50.48
2018-08-20T09:25:38.518Z,51.75
2018-08-20T09:26:38.529Z,50.97
2018-08-20T09:27:38.540Z,50.60
2018-08-20T09:28:38.551Z,50.41
2018-08-20T09:29:38.567Z,50.51
2018-08-20T09:30:38.574Z,50.58
2018-08-20T09:31:38.584Z,50.58
2018-08-20T09:32:38.716Z,49.71
2018-08-20T09:33:38.607Z,50.02
2018-08-20T09:34:38.616Z,49.95
2018-08-20T09:35:38.629Z,50.73
2018-08-20T09:36:38.859Z,48.22
2018-08-20T09:37:38.651Z,49.49
2018-08-20T09:38:38.663Z,48.51
2018-08-20T09:39:38.760Z,49.19
2018-08-20T09:40:38.687Z,47.90
2018-08-20T09:41:38.788Z,48.29
2018-08-20T09:42:38.708Z,48.71
2018-08-20T09:43:38.724Z,49.22
2018-08-20T09:44:38.735Z,51.29
2018-08-20T09:45:39.011Z,49.05
2018-08-20T09:46:38.756Z,49.07
2018-08-20T09:47:38.768Z,47.92
2018-08-20T09:48:38.781Z,47.24
2018-08-20T09:49:38.791Z,46.09
2018-08-20T09:50:38.803Z,45.80
2018-08-20T09:51:38.816Z,45.12
2018-08-20T09:52:38.829Z,45.31
2018-08-20T09:53:38.841Z,45.29
2018-08-20T09:54:39.137Z,45.29
2018-08-20T09:55:38.867Z,45.36
2018-08-20T09:56:39.114Z,46.44
2018-08-20T09:57:38.892Z,47.19
2018-08-20T09:58:38.903Z,47.97
2018-08-20T09:59:38.916Z,47.97
2018-08-20T10:00:38.929Z,47.95
2018-08-20T10:01:38.981Z,48.63
2018-08-20T10:02:39.070Z,49.24
2018-08-20T10:03:39.013Z,48.07
2018-08-20T10:04:39.031Z,50.53
2018-08-20T10:05:39.058Z,51.43
2018-08-20T10:06:39.099Z,47.02
2018-08-20T10:07:39.177Z,46.92
2018-08-20T10:08:39.143Z,47.88
2018-08-20T10:09:39.169Z,48.63
2018-08-20T10:10:39.122Z,49.41
2018-08-20T10:11:39.097Z,48.90
2018-08-20T10:12:39.152Z,48.73
2018-08-20T10:13:39.244Z,50.70
2018-08-20T10:14:39.146Z,48.88
2018-08-20T10:15:39.171Z,50.43
2018-08-20T10:16:39.177Z,47.51
2018-08-20T10:17:39.171Z,48.07
2018-08-20T10:18:39.153Z,48.07
2018-08-20T10:19:39.415Z,46.90
2018-08-20T10:20:39.177Z,47.88
2018-08-20T10:21:39.414Z,48.95
2018-08-20T10:22:39.479Z,49.22
2018-08-20T10:23:39.216Z,48.80
2018-08-20T10:24:39.237Z,48.32
2018-08-20T10:25:39.237Z,48.97
2018-08-20T10:26:39.514Z,50.26
2018-08-20T10:27:39.263Z,49.10
2018-08-20T10:28:39.277Z,50.19
2018-08-20T10:29:39.292Z,49.32
2018-08-20T10:30:39.297Z,48.93
2018-08-20T10:31:39.386Z,48.54
2018-08-20T10:32:39.322Z,49.49
2018-08-20T10:33:39.334Z,49.88
2018-08-20T10:34:39.343Z,50.95
2018-08-20T10:35:39.358Z,50.09
2018-08-20T10:36:39.662Z,49.12
2018-08-20T10:37:39.739Z,50.60
2018-08-20T10:38:39.630Z,49.95
2018-08-20T10:39:39.784Z,49.56
2018-08-20T10:40:39.674Z,48.39
2018-08-20T10:41:39.426Z,47.73
2018-08-20T10:42:39.437Z,47.44
2018-08-20T10:43:39.454Z,51.95
2018-08-20T10:44:39.462Z,50.81
2018-08-20T10:45:39.474Z,50.32
2018-08-20T10:46:39.509Z,48.65
2018-08-20T10:47:39.499Z,48.26
2018-08-20T10:48:39.510Z,46.82
2018-08-20T10:49:39.522Z,46.70
2018-08-20T10:50:39.535Z,49.16
2018-08-20T10:51:39.856Z,46.14
2018-08-20T10:52:39.560Z,46.62
2018-08-20T10:53:39.576Z,47.89
2018-08-20T10:54:39.584Z,46.16
2018-08-20T10:55:39.596Z,47.14
2018-08-20T10:56:39.610Z,46.16
2018-08-20T10:57:39.623Z,48.02
2018-08-20T10:58:39.747Z,44.81
2018-08-20T10:59:39.892Z,45.03
2018-08-20T11:00:39.860Z,43.76
2018-08-20T11:01:39.863Z,44.56
2018-08-20T11:02:39.686Z,43.95
2018-08-20T11:03:39.768Z,46.01
2018-08-20T11:04:39.777Z,43.63
2018-08-20T11:05:40.004Z,43.23
2018-08-20T11:06:39.738Z,44.84
2018-08-20T11:07:39.751Z,45.04
2018-08-20T11:08:39.764Z,46.99
2018-08-20T11:09:39.830Z,47.97
2018-08-20T11:10:39.804Z,50.44
2018-08-20T11:11:39.803Z,45.53
2018-08-20T11:12:39.817Z,44.14
2018-08-20T11:13:39.828Z,45.80
2018-08-20T11:14:39.849Z,45.70
2018-08-20T11:15:39.855Z,48.54
2018-08-20T11:16:39.868Z,46.46
2018-08-20T11:17:39.885Z,47.02
2018-08-20T11:18:39.952Z,46.95
2018-08-20T11:19:39.905Z,47.83
2018-08-20T11:20:39.917Z,50.36
2018-08-20T11:21:39.932Z,52.54
2018-08-20T11:22:39.942Z,49.22
2018-08-20T11:23:39.956Z,48.14
2018-08-20T11:24:39.968Z,47.63
2018-08-20T11:25:39.979Z,47.80
2018-08-20T11:26:39.992Z,48.10
2018-08-20T11:27:40.383Z,49.17
2018-08-20T11:28:40.183Z,50.85
2018-08-20T11:29:40.454Z,49.19
2018-08-20T11:30:40.042Z,48.41
2018-08-20T11:31:40.116Z,47.05
2018-08-20T11:32:40.066Z,48.51
2018-08-20T11:33:40.107Z,47.34
2018-08-20T11:34:40.094Z,48.19
2018-08-20T11:35:40.103Z,48.00
2018-08-20T11:36:40.161Z,48.29
2018-08-20T11:37:40.127Z,49.17
2018-08-20T11:38:40.143Z,50.63
2018-08-20T11:39:40.157Z,52.29
2018-08-20T11:40:40.164Z,49.68
2018-08-20T11:41:40.177Z,50.29
2018-08-20T11:42:40.189Z,49.14
2018-08-20T11:43:40.199Z,48.36
2018-08-20T11:44:40.212Z,48.87
2018-08-20T11:45:40.223Z,50.63
2018-08-20T11:46:40.236Z,48.48
2018-08-20T11:47:40.248Z,46.60
2018-08-20T11:48:40.262Z,47.07
2018-08-20T11:49:40.272Z,48.12
2018-08-20T11:50:40.286Z,48.49
2018-08-20T11:51:40.297Z,49.07
2018-08-20T11:52:40.442Z,49.73
2018-08-20T11:53:40.681Z,50.02
2018-08-20T11:54:40.332Z,49.93
2018-08-20T11:55:40.426Z,49.44
2018-08-20T11:56:40.357Z,49.41
2018-08-20T11:57:40.373Z,50.12
2018-08-20T11:58:40.380Z,48.46
2018-08-20T11:59:40.390Z,48.17
2018-08-20T12:00:40.401Z,50.29
2018-08-20T12:01:40.432Z,49.41
2018-08-20T12:02:40.426Z,49.41
2018-08-20T12:03:40.441Z,49.44
2018-08-20T12:04:40.448Z,49.32
2018-08-20T12:05:40.458Z,49.32
2018-08-20T12:06:40.470Z,49.12
2018-08-20T12:07:40.506Z,49.02
2018-08-20T12:08:40.949Z,47.95
2018-08-20T12:09:40.660Z,48.05
2018-08-20T12:10:40.514Z,50.12
2018-08-20T12:11:40.525Z,50.80
2018-08-20T12:12:40.541Z,49.95
2018-08-20T12:13:41.020Z,50.07
2018-08-20T12:14:40.558Z,47.51
2018-08-20T12:15:40.849Z,47.90
2018-08-20T12:16:40.859Z,48.39
2018-08-20T12:17:40.592Z,50.16
2018-08-20T12:18:40.600Z,50.39
2018-08-20T12:19:40.612Z,51.66
2018-08-20T12:20:40.623Z,50.22
2018-08-20T12:21:40.916Z,46.11
2018-08-20T12:22:40.675Z,46.53
2018-08-20T12:23:41.042Z,48.68
2018-08-20T12:24:40.696Z,47.11
2018-08-20T12:25:40.678Z,46.36
2018-08-20T12:26:40.889Z,49.48
2018-08-20T12:27:40.701Z,44.77
2018-08-20T12:28:40.714Z,44.53
2018-08-20T12:29:40.727Z,45.58
2018-08-20T12:30:40.736Z,46.34
2018-08-20T12:31:40.824Z,47.12
2018-08-20T12:32:40.895Z,46.44
2018-08-20T12:33:40.769Z,47.90
2018-08-20T12:34:40.891Z,48.00
2018-08-20T12:35:40.793Z,47.31
2018-08-20T12:36:41.032Z,47.90
2018-08-20T12:37:41.108Z,47.90
2018-08-20T12:38:41.112Z,47.51
2018-08-20T12:39:40.863Z,47.88
2018-08-20T12:40:40.848Z,47.31
2018-08-20T12:41:40.858Z,47.80
2018-08-20T12:42:40.870Z,47.88
2018-08-20T12:43:40.881Z,49.12
2018-08-20T12:44:40.892Z,48.46
2018-08-20T12:45:40.901Z,49.51
2018-08-20T12:46:40.958Z,49.32
2018-08-20T12:47:40.922Z,49.15
2018-08-20T12:48:40.933Z,48.54
2018-08-20T12:49:40.943Z,48.93
2018-08-20T12:50:40.956Z,48.73
2018-08-20T12:51:40.963Z,48.54
2018-08-20T12:52:40.973Z,48.44